createdAt,value
2019-05-13T00:01:07.189Z,101139.00
2019-05-13T00:03:40.395Z,101149.00
2019-05-13T00:06:13.717Z,101145.00
2019-05-13T00:08:46.683Z,101144.00
2019-05-13T00:11:19.711Z,101145.00
2019-05-13T00:13:53.714Z,101130.00
2019-05-13T00:16:26.752Z,101149.00
2019-05-13T00:18:59.740Z,101137.00
2019-05-13T00:21:33.897Z,101149.00
2019-05-13T00:24:06.930Z,101150.00
2019-05-13T00:26:39.800Z,101159.00
2019-05-13T00:29:14.220Z,101155.00
2019-05-13T00:31:47.603Z,101149.00
2019-05-13T00:34:20.338Z,101167.00
2019-05-13T00:37:07.032Z,101166.00
2019-05-13T00:39:27.279Z,101164.00
2019-05-13T00:42:00.389Z,101161.00
2019-05-13T00:44:33.805Z,101150.00
2019-05-13T00:47:08.012Z,101157.00
2019-05-13T00:49:43.557Z,101161.00
2019-05-13T00:52:15.413Z,101158.00
2019-05-13T00:54:49.548Z,101167.00
2019-05-13T00:57:23.819Z,101163.00
2019-05-13T00:59:57.382Z,101145.00
2019-05-13T01:02:30.061Z,101149.00
2019-05-13T01:05:04.287Z,101157.00
2019-05-13T01:07:37.433Z,101147.00
2019-05-13T01:10:12.954Z,101175.00
2019-05-13T01:12:45.099Z,101182.00
2019-05-13T01:15:17.989Z,101169.00
2019-05-13T01:17:53.514Z,101170.00
2019-05-13T01:20:26.033Z,101175.00
2019-05-13T01:23:00.167Z,101171.00
2019-05-13T01:25:33.613Z,101189.00
2019-05-13T01:28:07.956Z,101179.00
2019-05-13T01:30:43.621Z,101180.00
2019-05-13T01:33:16.024Z,101176.00
2019-05-13T01:35:49.320Z,101182.00
2019-05-13T01:38:24.142Z,101182.00
2019-05-13T01:40:56.767Z,101179.00
2019-05-13T01:43:30.278Z,101176.00
2019-05-13T01:46:04.500Z,101182.00
2019-05-13T01:48:38.468Z,101181.00
2019-05-13T01:51:13.173Z,101192.00
2019-05-13T01:53:45.851Z,101202.00
2019-05-13T01:56:19.905Z,101197.00
2019-05-13T01:58:54.084Z,101189.00
2019-05-13T02:01:27.000Z,101216.00
2019-05-13T02:04:00.005Z,101186.00
2019-05-13T02:06:33.588Z,101208.00
2019-05-13T02:09:07.872Z,101215.00
2019-05-13T02:11:43.810Z,101216.00
2019-05-13T02:14:15.399Z,101228.00
2019-05-13T02:16:48.418Z,101213.00
2019-05-13T02:19:21.075Z,101224.00
2019-05-13T02:21:54.295Z,101223.00
2019-05-13T02:24:27.354Z,101237.00
2019-05-13T02:27:00.399Z,101229.00
2019-05-13T02:29:34.483Z,101236.00
2019-05-13T02:32:08.522Z,101228.00
2019-05-13T02:34:43.763Z,101235.00
2019-05-13T02:37:15.776Z,101239.00
2019-05-13T02:39:49.166Z,101251.00
2019-05-13T02:42:22.829Z,101250.00
2019-05-13T02:44:55.735Z,101255.00
2019-05-13T02:47:28.885Z,101263.00
2019-05-13T02:50:04.872Z,101279.00
2019-05-13T02:52:35.813Z,101254.00
2019-05-13T02:55:12.380Z,101262.00
2019-05-13T02:57:44.105Z,101272.00
2019-05-13T03:00:17.871Z,101275.00
2019-05-13T03:02:52.471Z,101271.00
2019-05-13T03:05:24.874Z,101285.00
2019-05-13T03:07:57.409Z,101303.00
2019-05-13T03:10:33.153Z,101293.00
2019-05-13T03:13:05.061Z,101306.00
2019-05-13T03:15:38.917Z,101320.00
2019-05-13T03:18:13.354Z,101316.00
2019-05-13T03:20:46.045Z,101314.00
2019-05-13T03:23:18.604Z,101320.00
2019-05-13T03:25:53.645Z,101322.00
2019-05-13T03:28:25.616Z,101335.00
2019-05-13T03:31:05.487Z,101324.00
2019-05-13T03:33:36.930Z,101333.00
2019-05-13T03:36:14.024Z,101338.00
2019-05-13T03:38:59.945Z,101346.00
2019-05-13T03:41:17.729Z,101345.00
2019-05-13T03:43:53.273Z,101351.00
2019-05-13T03:46:27.279Z,101339.00
2019-05-13T03:49:02.557Z,101343.00
2019-05-13T03:51:35.843Z,101357.00
2019-05-13T03:54:09.054Z,101356.00
2019-05-13T03:56:43.055Z,101367.00
2019-05-13T03:59:22.272Z,101375.00
2019-05-13T04:01:55.437Z,101380.00
2019-05-13T04:04:32.385Z,101387.00
2019-05-13T04:07:05.627Z,101384.00
2019-05-13T04:09:42.432Z,101377.00
2019-05-13T04:12:13.935Z,101389.00
2019-05-13T04:14:46.875Z,101396.00
2019-05-13T04:17:19.587Z,101385.00
2019-05-13T04:19:53.078Z,101403.00
2019-05-13T04:22:25.863Z,101405.00
2019-05-13T04:25:02.288Z,101397.00
2019-05-13T04:27:32.939Z,101421.00
2019-05-13T04:30:06.216Z,101423.00
2019-05-13T04:32:38.683Z,101424.00
2019-05-13T04:35:12.347Z,101431.00
2019-05-13T04:37:45.860Z,101434.00
2019-05-13T04:40:18.462Z,101432.00
2019-05-13T04:42:53.432Z,101432.00
2019-05-13T04:45:25.999Z,101442.00
2019-05-13T04:47:58.618Z,101443.00
2019-05-13T04:50:32.938Z,101433.00
2019-05-13T04:53:05.806Z,101449.00
2019-05-13T04:55:42.514Z,101454.00
2019-05-13T04:58:13.157Z,101454.00
2019-05-13T05:01:16.821Z,101460.00
2019-05-13T05:04:22.374Z,101482.00
2019-05-13T05:07:12.640Z,101490.00
2019-05-13T05:10:15.818Z,101490.00
2019-05-13T05:12:51.702Z,101495.00
2019-05-13T05:15:32.394Z,101497.00
2019-05-13T05:18:26.221Z,101498.00
2019-05-13T05:21:06.963Z,101502.00
2019-05-13T05:23:44.980Z,101497.00
2019-05-13T05:26:36.687Z,101514.00
2019-05-13T05:29:26.737Z,101520.00
2019-05-13T05:32:12.679Z,101520.00
2019-05-13T05:35:07.550Z,101534.00
2019-05-13T05:38:08.261Z,101541.00
2019-05-13T05:40:45.570Z,101537.00
2019-05-13T05:43:21.655Z,101548.00
2019-05-13T05:45:55.673Z,101543.00
2019-05-13T05:48:28.477Z,101552.00
2019-05-13T05:51:03.255Z,101558.00
2019-05-13T05:53:38.344Z,101551.00
2019-05-13T05:56:14.164Z,101555.00
2019-05-13T05:58:48.059Z,101573.00
2019-05-13T06:01:23.217Z,101571.00
2019-05-13T06:03:58.395Z,101585.00
2019-05-13T06:06:35.151Z,101591.00
2019-05-13T06:09:08.329Z,101592.00
2019-05-13T06:11:41.712Z,101601.00
2019-05-13T06:14:14.441Z,101621.00
2019-05-13T06:16:47.260Z,101616.00
2019-05-13T06:19:22.347Z,101619.00
2019-05-13T06:21:54.605Z,101629.00
2019-05-13T06:24:27.652Z,101624.00
2019-05-13T06:27:01.591Z,101634.00
2019-05-13T06:29:34.334Z,101633.00
2019-05-13T06:32:21.230Z,101636.00
2019-05-13T06:34:41.547Z,101638.00
2019-05-13T06:37:14.635Z,101647.00
2019-05-13T06:39:47.415Z,101648.00
2019-05-13T06:42:22.035Z,101653.00
2019-05-13T06:44:54.357Z,101658.00
2019-05-13T06:47:27.393Z,101662.00
2019-05-13T06:50:03.258Z,101664.00
2019-05-13T06:52:38.149Z,101665.00
2019-05-13T06:55:11.619Z,101686.00
2019-05-13T06:57:44.643Z,101695.00
2019-05-13T07:00:21.575Z,101693.00
2019-05-13T07:02:52.022Z,101682.00
2019-05-13T07:05:24.657Z,101696.00
2019-05-13T07:08:01.817Z,101703.00
2019-05-13T07:10:32.459Z,101699.00
2019-05-13T07:13:06.379Z,101705.00
2019-05-13T07:15:41.393Z,101718.00
2019-05-13T07:18:16.112Z,101719.00
2019-05-13T07:20:47.299Z,101728.00
2019-05-13T07:23:22.248Z,101723.00
2019-05-13T07:25:54.007Z,101739.00
2019-05-13T07:28:26.892Z,101738.00
2019-05-13T07:31:01.955Z,101741.00
2019-05-13T07:33:34.007Z,101740.00
2019-05-13T07:36:06.904Z,101754.00
2019-05-13T07:38:41.434Z,101758.00
2019-05-13T07:41:13.429Z,101753.00
2019-05-13T07:43:46.025Z,101755.00
2019-05-13T07:46:18.925Z,101759.00
2019-05-13T07:48:52.112Z,101762.00
2019-05-13T07:51:25.199Z,101772.00
2019-05-13T07:53:58.589Z,101773.00
2019-05-13T07:56:32.413Z,101786.00
2019-05-13T07:59:05.557Z,101791.00
2019-05-13T08:01:41.883Z,101796.00
2019-05-13T08:04:22.490Z,101794.00
2019-05-13T08:06:52.387Z,101792.00
2019-05-13T08:09:22.711Z,101803.00
2019-05-13T08:12:05.479Z,101805.00
2019-05-13T08:14:29.220Z,101807.00
2019-05-13T08:17:02.653Z,101809.00
2019-05-13T08:19:35.834Z,101808.00
2019-05-13T08:22:08.684Z,101822.00
2019-05-13T08:24:42.500Z,101821.00
2019-05-13T08:27:15.680Z,101815.00
2019-05-13T08:29:48.436Z,101815.00
2019-05-13T08:32:22.120Z,101832.00
2019-05-13T08:35:01.285Z,101830.00
2019-05-13T08:37:29.266Z,101832.00
2019-05-13T08:40:02.195Z,101839.00
2019-05-13T08:42:34.924Z,101835.00
2019-05-13T08:45:12.106Z,101848.00
2019-05-13T08:47:44.929Z,101847.00
2019-05-13T08:50:18.375Z,101851.00
2019-05-13T08:52:51.301Z,101859.00
2019-05-13T08:55:24.547Z,101852.00
2019-05-13T08:57:57.389Z,101854.00
2019-05-13T09:00:48.373Z,101859.00
2019-05-13T09:03:21.706Z,101871.00
2019-05-13T09:05:55.039Z,101872.00
2019-05-13T09:08:28.637Z,101874.00
2019-05-13T09:11:01.725Z,101873.00
2019-05-13T09:13:35.882Z,101883.00
2019-05-13T09:16:13.141Z,101878.00
2019-05-13T09:18:43.860Z,101885.00
2019-05-13T09:21:22.279Z,101889.00
2019-05-13T09:23:53.779Z,101888.00
2019-05-13T09:26:26.656Z,101890.00
2019-05-13T09:29:01.271Z,101891.00
2019-05-13T09:31:34.663Z,101891.00
2019-05-13T09:34:12.545Z,101897.00
2019-05-13T09:36:43.855Z,101895.00
2019-05-13T09:39:16.631Z,101902.00
2019-05-13T09:41:51.807Z,101901.00
2019-05-13T09:44:23.476Z,101906.00
2019-05-13T09:46:56.339Z,101909.00
2019-05-13T09:49:29.014Z,101924.00
2019-05-13T09:52:02.072Z,101928.00
2019-05-13T09:54:35.193Z,101923.00
2019-05-13T09:57:11.897Z,101929.00
2019-05-13T09:59:43.463Z,101930.00
2019-05-13T10:02:16.807Z,101926.00
2019-05-13T10:04:51.588Z,101933.00
2019-05-13T10:07:23.863Z,101924.00
2019-05-13T10:09:56.611Z,101927.00
2019-05-13T10:12:31.617Z,101928.00
2019-05-13T10:15:03.465Z,101926.00
2019-05-13T10:17:36.568Z,101927.00
2019-05-13T10:20:12.152Z,101926.00
2019-05-13T10:22:44.853Z,101945.00
2019-05-13T10:25:22.259Z,101941.00
2019-05-13T10:27:54.034Z,101934.00
2019-05-13T10:30:26.742Z,101943.00
2019-05-13T10:33:00.398Z,101944.00
2019-05-13T10:35:33.639Z,101947.00
2019-05-13T10:38:06.439Z,101948.00
2019-05-13T10:40:39.114Z,101952.00
2019-05-13T10:43:27.055Z,101961.00
2019-05-13T10:45:45.964Z,101971.00
2019-05-13T10:48:18.840Z,101971.00
2019-05-13T10:50:52.992Z,101957.00
2019-05-13T10:53:25.675Z,101955.00
2019-05-13T10:55:58.563Z,101951.00
2019-05-13T10:58:31.344Z,101959.00
2019-05-13T11:01:04.350Z,101959.00
2019-05-13T11:03:37.005Z,101964.00
2019-05-13T11:06:11.652Z,101963.00
2019-05-13T11:08:43.586Z,101962.00
2019-05-13T11:11:16.498Z,101970.00
2019-05-13T11:13:58.028Z,101972.00
2019-05-13T11:16:23.283Z,101973.00
2019-05-13T11:18:56.028Z,101983.00
2019-05-13T11:21:28.697Z,101986.00
2019-05-13T11:24:03.328Z,101986.00
2019-05-13T11:26:36.301Z,101986.00
2019-05-13T11:29:12.008Z,101991.00
2019-05-13T11:31:43.647Z,101986.00
2019-05-13T11:34:16.534Z,101993.00
2019-05-13T11:36:52.829Z,102000.00
2019-05-13T11:39:23.747Z,102003.00
2019-05-13T11:41:56.332Z,101999.00
2019-05-13T11:44:31.957Z,102001.00
2019-05-13T11:47:03.374Z,101991.00
2019-05-13T11:49:36.068Z,101988.00
2019-05-13T11:52:11.101Z,101984.00
2019-05-13T11:54:43.503Z,101985.00
2019-05-13T11:57:16.033Z,101983.00
2019-05-13T11:59:49.225Z,101985.00
2019-05-13T12:02:23.860Z,101989.00
2019-05-13T12:04:56.867Z,101982.00
2019-05-13T12:07:32.267Z,101978.00
2019-05-13T12:10:03.897Z,101984.00
2019-05-13T12:12:37.051Z,101990.00
2019-05-13T12:15:45.003Z,101989.00
2019-05-13T12:17:47.046Z,101988.00
2019-05-13T12:20:19.939Z,101982.00
2019-05-13T12:22:53.519Z,101990.00
2019-05-13T12:25:26.354Z,101992.00
2019-05-13T12:28:03.137Z,101990.00
2019-05-13T12:30:33.855Z,102001.00
2019-05-13T12:33:06.903Z,102000.00
2019-05-13T12:35:39.561Z,101992.00
2019-05-13T12:38:13.434Z,102002.00
2019-05-13T12:40:47.296Z,102004.00
2019-05-13T12:43:23.025Z,101996.00
2019-05-13T12:45:54.611Z,101990.00
2019-05-13T12:48:27.738Z,101985.00
2019-05-13T12:51:02.875Z,102002.00
2019-05-13T12:53:34.844Z,101993.00
2019-05-13T12:56:08.311Z,101996.00
2019-05-13T12:58:42.089Z,101997.00
2019-05-13T13:01:14.996Z,102006.00
2019-05-13T13:03:48.631Z,102005.00
2019-05-13T13:06:31.190Z,101999.00
2019-05-13T13:08:56.382Z,102008.00
2019-05-13T13:11:32.128Z,102006.00
2019-05-13T13:14:05.908Z,102003.00
2019-05-13T13:16:38.038Z,102000.00
2019-05-13T13:19:14.873Z,101997.00
2019-05-13T13:21:45.320Z,101998.00
2019-05-13T13:24:18.178Z,102000.00
2019-05-13T13:26:53.294Z,102011.00
2019-05-13T13:29:25.000Z,102008.00
2019-05-13T13:31:58.153Z,102000.00
2019-05-13T13:34:33.611Z,102012.00
2019-05-13T13:37:05.414Z,102019.00
2019-05-13T13:39:38.342Z,102023.00
2019-05-13T13:42:13.080Z,102028.00
2019-05-13T13:44:45.661Z,102028.00
2019-05-13T13:47:23.971Z,102025.00
2019-05-13T13:49:53.696Z,102030.00
2019-05-13T13:52:26.753Z,102031.00
2019-05-13T13:55:04.403Z,102028.00
2019-05-13T13:57:34.165Z,102038.00
2019-05-13T14:00:26.433Z,102030.00
2019-05-13T14:02:43.106Z,102026.00
2019-05-13T14:05:16.849Z,102030.00
2019-05-13T14:07:52.052Z,102025.00
2019-05-13T14:10:23.933Z,102015.00
2019-05-13T14:12:56.733Z,102021.00
2019-05-13T14:15:33.692Z,102023.00
2019-05-13T14:18:04.191Z,102021.00
2019-05-13T14:20:38.234Z,102024.00
2019-05-13T14:23:12.598Z,102029.00
2019-05-13T14:25:45.373Z,102043.00
2019-05-13T14:28:18.745Z,102037.00
2019-05-13T14:30:51.663Z,102040.00
2019-05-13T14:33:24.894Z,102033.00
2019-05-13T14:35:57.686Z,102041.00
2019-05-13T14:38:32.602Z,102038.00
2019-05-13T14:41:04.684Z,102032.00
2019-05-13T14:43:37.629Z,102028.00
2019-05-13T14:46:12.616Z,102027.00
2019-05-13T14:48:44.805Z,102031.00
2019-05-13T14:51:18.118Z,102030.00
2019-05-13T14:53:52.041Z,102028.00
2019-05-13T14:56:25.234Z,102030.00
2019-05-13T14:58:58.067Z,102029.00
2019-05-13T15:01:31.905Z,102029.00
2019-05-13T15:04:04.771Z,102029.00
2019-05-13T15:06:38.159Z,102025.00
2019-05-13T15:09:12.636Z,102021.00
2019-05-13T15:11:45.271Z,102021.00
2019-05-13T15:14:18.225Z,102013.00
2019-05-13T15:17:02.252Z,102024.00
2019-05-13T15:19:25.320Z,102015.00
2019-05-13T15:21:58.801Z,102026.00
2019-05-13T15:24:32.437Z,102026.00
2019-05-13T15:27:05.646Z,102031.00
2019-05-13T15:29:38.595Z,102029.00
2019-05-13T15:32:11.491Z,102020.00
2019-05-13T15:34:45.522Z,102030.00
2019-05-13T15:37:18.699Z,102035.00
2019-05-13T15:39:51.963Z,102031.00
2019-05-13T15:42:24.748Z,102032.00
2019-05-13T15:44:58.522Z,102029.00
2019-05-13T15:47:31.572Z,102027.00
2019-05-13T15:50:04.819Z,102033.00
2019-05-13T15:52:37.525Z,102034.00
2019-05-13T15:55:11.988Z,102038.00
2019-05-13T15:57:44.965Z,102040.00
2019-05-13T16:00:18.925Z,102036.00
2019-05-13T16:02:52.986Z,102036.00
2019-05-13T16:05:26.704Z,102035.00
2019-05-13T16:08:01.424Z,102031.00
2019-05-13T16:10:33.914Z,102032.00
2019-05-13T16:13:06.644Z,102035.00
2019-05-13T16:15:41.477Z,102029.00
2019-05-13T16:18:13.725Z,102021.00
2019-05-13T16:20:46.738Z,102021.00
2019-05-13T16:23:21.246Z,102025.00
2019-05-13T16:25:53.940Z,102030.00
2019-05-13T16:28:26.943Z,102039.00
2019-05-13T16:31:02.235Z,102045.00
2019-05-13T16:33:35.585Z,102044.00
2019-05-13T16:36:08.419Z,102042.00
2019-05-13T16:38:41.857Z,102047.00
2019-05-13T16:41:14.989Z,102047.00
2019-05-13T16:43:48.094Z,102050.00
2019-05-13T16:46:21.439Z,102052.00
2019-05-13T16:48:54.558Z,102046.00
2019-05-13T16:51:27.525Z,102049.00
2019-05-13T16:54:00.472Z,102050.00
2019-05-13T16:56:33.593Z,102058.00
2019-05-13T16:59:10.469Z,102058.00
2019-05-13T17:01:43.342Z,102062.00
2019-05-13T17:04:16.428Z,102069.00
2019-05-13T17:06:49.580Z,102070.00
2019-05-13T17:09:22.942Z,102072.00
2019-05-13T17:11:55.658Z,102070.00
2019-05-13T17:14:28.972Z,102072.00
2019-05-13T17:17:01.888Z,102063.00
2019-05-13T17:19:34.970Z,102068.00
2019-05-13T17:22:07.954Z,102069.00
2019-05-13T17:24:42.668Z,102070.00
2019-05-13T17:27:15.296Z,102072.00
2019-05-13T17:29:48.405Z,102079.00
2019-05-13T17:32:22.192Z,102078.00
2019-05-13T17:34:55.476Z,102077.00
2019-05-13T17:37:28.228Z,102080.00
2019-05-13T17:40:01.592Z,102095.00
2019-05-13T17:42:34.282Z,102082.00
2019-05-13T17:45:08.254Z,102082.00
2019-05-13T17:47:41.883Z,102089.00
2019-05-13T17:50:14.954Z,102101.00
2019-05-13T17:52:47.541Z,102105.00
2019-05-13T17:55:22.295Z,102107.00
2019-05-13T17:57:54.570Z,102109.00
2019-05-13T18:00:27.599Z,102113.00
2019-05-13T18:03:01.914Z,102113.00
2019-05-13T18:05:34.906Z,102114.00
2019-05-13T18:08:11.084Z,102116.00
2019-05-13T18:10:42.906Z,102131.00
2019-05-13T18:13:15.825Z,102121.00
2019-05-13T18:15:49.489Z,102128.00
2019-05-13T18:18:22.431Z,102126.00
2019-05-13T18:20:55.571Z,102136.00
2019-05-13T18:23:29.013Z,102144.00
2019-05-13T18:26:02.111Z,102130.00
2019-05-13T18:28:35.325Z,102144.00
2019-05-13T18:31:08.101Z,102137.00
2019-05-13T18:33:42.417Z,102144.00
2019-05-13T18:36:15.539Z,102143.00
2019-05-13T18:38:49.302Z,102141.00
2019-05-13T18:41:22.468Z,102146.00
2019-05-13T18:43:55.503Z,102149.00
2019-05-13T18:46:29.011Z,102154.00
2019-05-13T18:49:02.206Z,102148.00
2019-05-13T18:51:35.570Z,102163.00
2019-05-13T18:54:08.928Z,102162.00
2019-05-13T18:56:42.172Z,102166.00
2019-05-13T18:59:15.502Z,102168.00
2019-05-13T19:01:48.176Z,102165.00
2019-05-13T19:04:21.775Z,102166.00
2019-05-13T19:06:54.987Z,102170.00
2019-05-13T19:09:28.180Z,102179.00
2019-05-13T19:12:01.472Z,102176.00
2019-05-13T19:14:34.154Z,102172.00
2019-05-13T19:17:06.984Z,102179.00
2019-05-13T19:19:42.022Z,102186.00
2019-05-13T19:22:14.011Z,102186.00
2019-05-13T19:24:46.846Z,102187.00
2019-05-13T19:27:21.461Z,102191.00
2019-05-13T19:29:58.382Z,102190.00
2019-05-13T19:32:29.222Z,102186.00
2019-05-13T19:35:02.509Z,102189.00
2019-05-13T19:37:35.679Z,102194.00
2019-05-13T19:40:09.284Z,102188.00
2019-05-13T19:42:42.161Z,102191.00
2019-05-13T19:45:15.019Z,102193.00
2019-05-13T19:47:47.804Z,102194.00
2019-05-13T19:50:22.329Z,102198.00
2019-05-13T19:52:55.034Z,102208.00
2019-05-13T19:55:27.834Z,102206.00
2019-05-13T19:58:01.886Z,102209.00
2019-05-13T20:00:34.613Z,102208.00
2019-05-13T20:03:06.859Z,102215.00
2019-05-13T20:05:41.257Z,102214.00
2019-05-13T20:08:13.731Z,102222.00
2019-05-13T20:10:46.315Z,102219.00
2019-05-13T20:13:19.129Z,102221.00
2019-05-13T20:15:51.988Z,102222.00
2019-05-13T20:18:26.469Z,102223.00
2019-05-13T20:21:05.084Z,102220.00
2019-05-13T20:23:37.700Z,102230.00
2019-05-13T20:26:10.661Z,102232.00
2019-05-13T20:28:43.639Z,102231.00
2019-05-13T20:31:16.825Z,102226.00
2019-05-13T20:33:51.586Z,102228.00
2019-05-13T20:36:23.586Z,102219.00
2019-05-13T20:38:56.237Z,102229.00
2019-05-13T20:41:31.498Z,102229.00
2019-05-13T20:44:03.297Z,102241.00
2019-05-13T20:46:36.381Z,102240.00
2019-05-13T20:49:11.829Z,102235.00
2019-05-13T20:51:43.371Z,102235.00
2019-05-13T20:54:16.029Z,102234.00
2019-05-13T20:56:48.663Z,102241.00
2019-05-13T20:59:21.711Z,102247.00
2019-05-13T21:01:54.613Z,102250.00
2019-05-13T21:04:28.087Z,102244.00
2019-05-13T21:07:02.086Z,102240.00
2019-05-13T21:09:35.659Z,102244.00
2019-05-13T21:12:08.655Z,102242.00
2019-05-13T21:14:41.340Z,102239.00
2019-05-13T21:17:14.786Z,102237.00
2019-05-13T21:19:47.494Z,102231.00
2019-05-13T21:22:21.260Z,102226.00
2019-05-13T21:24:54.255Z,102227.00
2019-05-13T21:27:26.957Z,102220.00
2019-05-13T21:30:01.246Z,102220.00
2019-05-13T21:32:33.786Z,102232.00
2019-05-13T21:35:06.431Z,102237.00
2019-05-13T21:37:39.311Z,102248.00
2019-05-13T21:40:13.185Z,102243.00
2019-05-13T21:42:46.221Z,102242.00
2019-05-13T21:45:19.084Z,102236.00
2019-05-13T21:47:51.775Z,102233.00
2019-05-13T21:50:34.159Z,102233.00
2019-05-13T21:52:58.423Z,102234.00
2019-05-13T21:55:30.977Z,102246.00
2019-05-13T21:58:03.956Z,102236.00
2019-05-13T22:00:43.438Z,102252.00
2019-05-13T22:03:16.300Z,102248.00
2019-05-13T22:05:51.318Z,102256.00
2019-05-13T22:08:23.580Z,102245.00
2019-05-13T22:10:56.474Z,102243.00
2019-05-13T22:13:31.359Z,102243.00
2019-05-13T22:16:03.126Z,102245.00
2019-05-13T22:18:35.593Z,102238.00
2019-05-13T22:21:08.492Z,102239.00
2019-05-13T22:23:41.211Z,102241.00
2019-05-13T22:26:14.771Z,102234.00
2019-05-13T22:28:47.481Z,102231.00
2019-05-13T22:31:22.083Z,102229.00
2019-05-13T22:33:53.951Z,102229.00
2019-05-13T22:36:26.992Z,102221.00
2019-05-13T22:39:01.951Z,102221.00
2019-05-13T22:41:33.787Z,102207.00
2019-05-13T22:44:06.702Z,102206.00
2019-05-13T22:46:41.252Z,102216.00
2019-05-13T22:49:13.940Z,102205.00
2019-05-13T22:51:47.966Z,102212.00
2019-05-13T22:54:21.202Z,102215.00
2019-05-13T22:56:54.020Z,102223.00
2019-05-13T22:59:27.287Z,102217.00
2019-05-13T23:01:59.732Z,102220.00
2019-05-13T23:04:32.541Z,102214.00
2019-05-13T23:07:05.380Z,102212.00
2019-05-13T23:09:41.369Z,102220.00
2019-05-13T23:12:13.057Z,102220.00
2019-05-13T23:14:45.938Z,102228.00
2019-05-13T23:17:18.768Z,102204.00
2019-05-13T23:19:53.156Z,102217.00
2019-05-13T23:22:25.725Z,102227.00
2019-05-13T23:24:58.481Z,102221.00
2019-05-13T23:27:32.083Z,102212.00
2019-05-13T23:30:05.615Z,102211.00
2019-05-13T23:32:38.289Z,102210.00
2019-05-13T23:35:11.813Z,102206.00
2019-05-13T23:37:44.666Z,102204.00
2019-05-13T23:40:17.504Z,102207.00
2019-05-13T23:42:51.591Z,102206.00
2019-05-13T23:45:24.589Z,102196.00
2019-05-13T23:47:57.430Z,102181.00
2019-05-13T23:50:31.951Z,102186.00
2019-05-13T23:53:03.663Z,102180.00
2019-05-13T23:55:36.755Z,102192.00
2019-05-13T23:58:12.018Z,102187.00
